createdAt,value
2018-07-28T00:02:40.140Z,20.20
2018-07-28T00:05:09.843Z,20.20
2018-07-28T00:07:38.318Z,20.20
2018-07-28T00:10:09.562Z,20.20
2018-07-28T00:12:38.123Z,20.10
2018-07-28T00:15:09.234Z,20.10
2018-07-28T00:17:37.842Z,20.10
2018-07-28T00:20:08.490Z,20.10
2018-07-28T00:22:37.107Z,20.10
2018-07-28T00:25:06.715Z,20.10
2018-07-28T00:27:35.221Z,20.10
2018-07-28T00:30:03.830Z,20.10
2018-07-28T00:32:32.298Z,20.10
2018-07-28T00:35:00.800Z,20.00
2018-07-28T00:37:29.255Z,20.00
2018-07-28T00:39:57.756Z,20.00
2018-07-28T00:42:26.408Z,20.00
2018-07-28T00:44:54.932Z,20.00
2018-07-28T00:47:23.491Z,19.90
2018-07-28T00:49:52.050Z,19.80
2018-07-28T00:52:20.831Z,19.80
2018-07-28T00:54:49.940Z,19.80
2018-07-28T00:57:18.419Z,19.80
2018-07-28T00:59:46.911Z,19.70
2018-07-28T01:02:15.408Z,19.80
2018-07-28T01:04:43.923Z,19.70
2018-07-28T01:07:12.405Z,19.70
2018-07-28T01:09:41.117Z,19.70
2018-07-28T01:12:09.938Z,19.70
2018-07-28T01:14:38.424Z,19.70
2018-07-28T01:17:06.968Z,19.70
2018-07-28T01:19:35.795Z,19.70
2018-07-28T01:22:04.305Z,19.70
2018-07-28T01:24:32.799Z,19.60
2018-07-28T01:27:01.371Z,19.60
2018-07-28T01:29:29.839Z,19.60
2018-07-28T01:31:58.310Z,19.70
2018-07-28T01:34:27.157Z,19.60
2018-07-28T01:36:55.660Z,19.60
2018-07-28T01:39:24.127Z,19.60
2018-07-28T01:41:52.638Z,19.50
2018-07-28T01:44:21.116Z,19.40
2018-07-28T01:46:49.604Z,19.40
2018-07-28T01:49:18.097Z,19.40
2018-07-28T01:51:46.761Z,19.40
2018-07-28T01:56:43.390Z,19.40
2018-07-28T01:59:11.884Z,19.40
2018-07-28T02:01:41.422Z,19.40
2018-07-28T02:04:09.916Z,19.40
2018-07-28T02:06:38.389Z,19.30
2018-07-28T02:09:09.044Z,19.30
2018-07-28T02:11:37.511Z,19.30
2018-07-28T02:14:06.047Z,19.30
2018-07-28T02:16:34.548Z,19.30
2018-07-28T02:19:03.455Z,19.30
2018-07-28T02:21:32.047Z,19.20
2018-07-28T02:24:00.534Z,19.20
2018-07-28T02:26:29.003Z,19.10
2018-07-28T02:28:57.547Z,19.10
2018-07-28T02:31:26.178Z,19.00
2018-07-28T02:33:54.772Z,19.00
2018-07-28T02:36:23.270Z,18.90
2018-07-28T02:38:51.779Z,18.90
2018-07-28T02:41:20.339Z,18.90
2018-07-28T02:43:48.859Z,18.90
2018-07-28T02:46:17.674Z,18.90
2018-07-28T02:48:46.319Z,18.80
2018-07-28T02:51:14.779Z,18.80
2018-07-28T02:53:45.484Z,18.80
2018-07-28T02:56:14.857Z,18.80
2018-07-28T02:58:43.825Z,18.70
2018-07-28T03:01:12.395Z,18.70
2018-07-28T03:03:41.474Z,18.60
2018-07-28T03:06:09.945Z,18.70
2018-07-28T03:08:38.593Z,18.60
2018-07-28T03:11:07.456Z,18.60
2018-07-28T03:13:35.924Z,18.60
2018-07-28T03:16:11.043Z,18.60
2018-07-28T03:18:39.528Z,18.50
2018-07-28T03:21:08.389Z,18.50
2018-07-28T03:23:36.858Z,18.50
2018-07-28T03:26:05.404Z,18.50
2018-07-28T03:28:33.947Z,18.40
2018-07-28T03:31:02.812Z,18.40
2018-07-28T03:33:31.267Z,18.40
2018-07-28T03:35:59.789Z,18.40
2018-07-28T03:38:28.278Z,18.30
2018-07-28T03:40:56.803Z,18.30
2018-07-28T03:43:25.604Z,18.30
2018-07-28T03:45:54.108Z,18.30
2018-07-28T03:48:22.601Z,18.20
2018-07-28T03:50:51.188Z,18.20
2018-07-28T03:53:20.012Z,18.10
2018-07-28T03:55:48.508Z,18.10
2018-07-28T03:58:16.971Z,18.10
2018-07-28T04:00:45.473Z,18.10
2018-07-28T04:03:13.956Z,18.20
2018-07-28T04:05:42.973Z,18.20
2018-07-28T04:08:12.235Z,18.20
2018-07-28T04:10:40.688Z,18.20
2018-07-28T04:13:09.224Z,18.30
2018-07-28T04:15:38.104Z,18.30
2018-07-28T04:18:06.615Z,18.30
2018-07-28T04:20:35.090Z,18.30
2018-07-28T04:23:03.570Z,18.40
2018-07-28T04:25:32.014Z,18.40
2018-07-28T04:28:00.511Z,18.50
2018-07-28T04:30:29.425Z,18.50
2018-07-28T04:32:57.895Z,18.50
2018-07-28T04:35:26.435Z,18.60
2018-07-28T04:37:54.911Z,18.60
2018-07-28T04:40:23.356Z,18.70
2018-07-28T04:42:51.838Z,18.70
2018-07-28T04:45:20.638Z,18.70
2018-07-28T04:47:49.125Z,18.70
2018-07-28T04:50:17.563Z,18.80
2018-07-28T04:52:46.132Z,18.80
2018-07-28T04:55:14.562Z,18.80
2018-07-28T04:57:43.052Z,18.90
2018-07-28T05:00:11.499Z,18.90
2018-07-28T05:02:39.980Z,18.90
2018-07-28T05:05:08.430Z,19.00
2018-07-28T05:07:37.024Z,19.00
2018-07-28T05:10:05.571Z,19.00
2018-07-28T05:12:34.068Z,19.10
2018-07-28T05:15:02.522Z,19.20
2018-07-28T05:17:31.040Z,19.30
2018-07-28T05:19:59.855Z,19.30
2018-07-28T05:22:28.287Z,19.40
2018-07-28T05:24:57.104Z,19.50
2018-07-28T05:27:25.916Z,19.50
2018-07-28T05:29:54.349Z,19.60
2018-07-28T05:32:22.834Z,19.70
2018-07-28T05:34:51.280Z,19.90
2018-07-28T05:37:19.781Z,19.90
2018-07-28T05:39:48.545Z,20.10
2018-07-28T05:42:17.034Z,20.10
2018-07-28T05:44:45.498Z,20.30
2018-07-28T05:47:13.967Z,20.40
2018-07-28T05:49:42.974Z,20.50
2018-07-28T05:52:11.449Z,20.70
2018-07-28T05:54:39.879Z,20.80
2018-07-28T05:57:08.364Z,20.90
2018-07-28T05:59:36.804Z,21.00
2018-07-28T06:02:05.380Z,21.20
2018-07-28T06:04:33.820Z,21.30
2018-07-28T06:07:02.352Z,21.50
2018-07-28T06:09:30.795Z,21.70
2018-07-28T06:11:59.630Z,21.90
2018-07-28T06:14:28.101Z,22.00
2018-07-28T06:16:56.614Z,22.20
2018-07-28T06:19:25.043Z,22.30
2018-07-28T06:21:53.533Z,22.40
2018-07-28T06:24:22.295Z,22.50
2018-07-28T06:26:50.790Z,22.60
2018-07-28T06:29:19.236Z,22.80
2018-07-28T06:31:47.772Z,22.90
2018-07-28T06:34:16.356Z,22.90
2018-07-28T06:36:44.834Z,23.00
2018-07-28T06:39:14.335Z,23.00
2018-07-28T06:41:43.503Z,23.20
2018-07-28T06:44:12.000Z,23.30
2018-07-28T06:46:40.607Z,23.50
2018-07-28T06:49:09.909Z,23.70
2018-07-28T06:51:38.465Z,23.90
2018-07-28T06:54:07.483Z,24.00
2018-07-28T06:56:37.094Z,24.20
2018-07-28T06:59:07.304Z,24.20
2018-07-28T07:01:35.789Z,24.20
2018-07-28T07:04:04.621Z,24.40
2018-07-28T07:06:33.126Z,24.50
2018-07-28T07:09:01.560Z,24.70
2018-07-28T07:11:30.540Z,24.80
2018-07-28T07:13:59.063Z,24.90
2018-07-28T07:16:28.081Z,25.00
2018-07-28T07:18:57.127Z,25.20
2018-07-28T07:21:26.121Z,25.40
2018-07-28T07:23:55.118Z,25.50
2018-07-28T07:26:24.103Z,25.60
2018-07-28T07:28:53.515Z,25.80
2018-07-28T07:31:22.492Z,25.90
2018-07-28T07:33:51.530Z,26.00
2018-07-28T07:36:20.536Z,26.10
2018-07-28T07:38:49.583Z,26.20
2018-07-28T07:41:18.562Z,26.40
2018-07-28T07:43:47.580Z,26.50
2018-07-28T07:46:16.571Z,26.70
2018-07-28T07:48:45.582Z,26.80
2018-07-28T07:51:14.548Z,26.70
2018-07-28T07:53:43.581Z,27.10
2018-07-28T07:56:12.747Z,27.20
2018-07-28T07:58:41.770Z,27.30
2018-07-28T08:01:10.758Z,27.40
2018-07-28T08:03:40.135Z,27.50
2018-07-28T08:06:09.576Z,27.60
2018-07-28T08:08:38.613Z,27.70
2018-07-28T08:11:07.636Z,27.80
2018-07-28T08:13:36.702Z,28.00
2018-07-28T08:16:41.276Z,28.20
2018-07-28T08:19:10.323Z,28.20
2018-07-28T08:21:39.331Z,28.30
2018-07-28T08:24:08.351Z,28.40
2018-07-28T08:26:37.380Z,28.50
2018-07-28T08:29:06.424Z,28.60
2018-07-28T08:31:35.615Z,28.60
2018-07-28T08:34:04.642Z,28.80
2018-07-28T08:36:33.618Z,29.00
2018-07-28T08:39:02.680Z,29.10
2018-07-28T08:41:31.998Z,29.30
2018-07-28T08:44:01.027Z,29.50
2018-07-28T08:46:30.086Z,29.70
2018-07-28T08:51:29.671Z,29.80
2018-07-28T08:53:58.708Z,30.00
2018-07-28T08:56:27.888Z,30.20
2018-07-28T08:58:57.478Z,30.30
2018-07-28T09:01:26.562Z,30.40
2018-07-28T09:03:55.680Z,30.60
2018-07-28T09:06:24.686Z,30.90
2018-07-28T09:08:53.837Z,31.10
2018-07-28T09:11:23.240Z,31.20
2018-07-28T09:13:52.303Z,31.30
2018-07-28T09:16:21.378Z,31.60
2018-07-28T09:18:50.775Z,31.70
2018-07-28T09:21:19.883Z,31.50
2018-07-28T09:26:19.026Z,30.90
2018-07-28T09:28:48.047Z,30.80
2018-07-28T09:31:17.259Z,30.90
2018-07-28T09:33:46.383Z,31.00
2018-07-28T09:36:15.392Z,31.20
2018-07-28T09:38:45.348Z,31.20
2018-07-28T09:41:14.746Z,31.20
2018-07-28T09:43:43.775Z,31.30
2018-07-28T09:46:12.777Z,31.40
2018-07-28T09:48:41.833Z,31.50
2018-07-28T09:51:11.291Z,31.60
2018-07-28T09:53:40.359Z,31.40
2018-07-28T09:56:09.514Z,31.50
2018-07-28T09:58:38.676Z,31.60
2018-07-28T10:01:12.868Z,31.80
2018-07-28T10:03:43.979Z,32.10
2018-07-28T10:06:13.431Z,32.30
2018-07-28T10:08:42.774Z,32.60
2018-07-28T10:11:11.807Z,32.70
2018-07-28T10:16:10.362Z,32.50
2018-07-28T10:18:39.566Z,32.60
2018-07-28T10:21:08.608Z,32.70
2018-07-28T10:23:37.578Z,32.90
2018-07-28T10:26:07.055Z,32.90
2018-07-28T10:28:36.031Z,33.10
2018-07-28T10:31:05.063Z,33.40
2018-07-28T10:33:34.066Z,33.70
2018-07-28T10:36:03.479Z,33.70
2018-07-28T10:38:32.482Z,33.50
2018-07-28T10:41:01.531Z,32.90
2018-07-28T10:43:30.524Z,32.70
2018-07-28T10:45:59.574Z,32.90
2018-07-28T10:48:28.579Z,33.10
2018-07-28T10:50:57.608Z,32.90
2018-07-28T10:53:26.579Z,32.90
2018-07-28T10:55:55.602Z,33.10
2018-07-28T10:58:24.819Z,33.10
2018-07-28T11:00:54.264Z,33.00
2018-07-28T11:03:23.261Z,32.90
2018-07-28T11:05:52.582Z,32.70
2018-07-28T11:08:21.579Z,32.50
2018-07-28T11:10:50.606Z,32.10
2018-07-28T11:13:19.598Z,31.70
2018-07-28T11:15:48.614Z,31.40
2018-07-28T11:18:17.627Z,31.20
2018-07-28T11:20:46.775Z,31.30
2018-07-28T11:23:27.043Z,31.50
2018-07-28T11:25:56.092Z,31.70
2018-07-28T11:28:25.100Z,31.80
2018-07-28T11:30:54.103Z,31.90
2018-07-28T11:33:34.252Z,31.90
2018-07-28T11:36:14.361Z,31.80
2018-07-28T11:38:54.487Z,31.80
2018-07-28T11:41:34.726Z,31.80
2018-07-28T11:44:14.891Z,32.00
2018-07-28T11:46:43.917Z,32.10
2018-07-28T11:49:12.897Z,32.00
2018-07-28T11:51:42.011Z,32.00
2018-07-28T11:54:11.008Z,31.80
2018-07-28T11:56:40.067Z,32.00
2018-07-28T11:59:09.053Z,32.30
2018-07-28T12:01:38.034Z,32.50
2018-07-28T12:04:07.239Z,32.60
2018-07-28T12:06:36.223Z,32.70
2018-07-28T12:09:07.514Z,33.00
2018-07-28T12:11:36.895Z,33.20
2018-07-28T12:14:05.939Z,33.30
2018-07-28T12:16:35.306Z,33.20
2018-07-28T12:19:04.443Z,33.20
2018-07-28T12:21:33.471Z,33.00
2018-07-28T12:24:02.553Z,32.70
2018-07-28T12:26:31.652Z,32.60
2018-07-28T12:29:00.662Z,32.50
2018-07-28T12:31:29.661Z,32.10
2018-07-28T12:33:58.677Z,31.70
2018-07-28T12:36:27.855Z,31.50
2018-07-28T12:38:56.880Z,31.50
2018-07-28T12:41:25.876Z,31.60
2018-07-28T12:43:54.904Z,31.70
2018-07-28T12:46:23.923Z,32.20
2018-07-28T12:48:52.939Z,32.40
2018-07-28T12:51:21.917Z,32.70
2018-07-28T12:53:50.951Z,32.60
2018-07-28T12:56:20.027Z,32.60
2018-07-28T12:58:49.138Z,32.50
2018-07-28T13:01:18.151Z,32.20
2018-07-28T13:03:47.392Z,32.20
2018-07-28T13:06:16.911Z,32.00
2018-07-28T13:08:45.950Z,31.70
2018-07-28T13:11:14.931Z,31.50
2018-07-28T13:13:43.956Z,31.20
2018-07-28T13:16:12.952Z,31.00
2018-07-28T13:18:42.060Z,30.70
2018-07-28T13:21:11.408Z,30.50
2018-07-28T13:23:40.842Z,30.10
2018-07-28T13:26:09.999Z,29.80
2018-07-28T13:28:39.031Z,29.60
2018-07-28T13:31:08.023Z,29.40
2018-07-28T13:33:37.056Z,29.40
2018-07-28T13:36:06.047Z,29.50
2018-07-28T13:38:35.064Z,29.60
2018-07-28T13:41:04.399Z,30.10
2018-07-28T13:43:33.564Z,30.40
2018-07-28T13:46:02.594Z,30.80
2018-07-28T13:48:31.648Z,31.20
2018-07-28T13:51:01.790Z,31.70
2018-07-28T13:53:31.192Z,32.20
2018-07-28T13:56:00.782Z,32.30
2018-07-28T13:58:30.147Z,32.10
2018-07-28T14:00:59.128Z,31.90
2018-07-28T14:03:28.164Z,31.70
2018-07-28T14:05:57.238Z,31.50
2018-07-28T14:08:26.518Z,31.50
2018-07-28T14:10:55.520Z,31.30
2018-07-28T14:13:26.543Z,31.40
2018-07-28T14:15:55.581Z,30.80
2018-07-28T14:18:25.453Z,30.60
2018-07-28T14:20:54.913Z,30.60
2018-07-28T14:23:23.973Z,30.30
2018-07-28T14:25:53.487Z,30.40
2018-07-28T14:28:22.492Z,30.40
2018-07-28T14:30:52.236Z,30.90
2018-07-28T14:33:21.234Z,31.20
2018-07-28T14:35:50.287Z,31.20
2018-07-28T14:38:19.284Z,31.10
2018-07-28T14:40:48.658Z,30.90
2018-07-28T14:43:18.016Z,30.80
2018-07-28T14:45:47.285Z,30.60
2018-07-28T14:48:16.444Z,30.40
2018-07-28T14:50:46.006Z,30.60
2018-07-28T14:53:15.013Z,30.50
2018-07-28T14:56:01.520Z,30.50
2018-07-28T14:58:30.606Z,30.30
2018-07-28T15:01:00.227Z,30.50
2018-07-28T15:03:29.261Z,30.60
2018-07-28T15:05:58.443Z,30.60
2018-07-28T15:08:27.426Z,30.60
2018-07-28T15:10:56.509Z,30.60
2018-07-28T15:13:25.979Z,30.70
2018-07-28T15:15:55.115Z,30.60
2018-07-28T15:18:24.188Z,30.60
2018-07-28T15:20:53.336Z,30.70
2018-07-28T15:23:22.669Z,30.80
2018-07-28T15:25:52.043Z,30.80
2018-07-28T15:28:21.047Z,30.90
2018-07-28T15:30:50.446Z,30.80
2018-07-28T15:33:19.411Z,30.70
2018-07-28T15:35:48.455Z,30.70
2018-07-28T15:38:17.437Z,30.50
2018-07-28T15:40:46.471Z,30.40
2018-07-28T15:43:15.452Z,30.40
2018-07-28T15:45:44.450Z,30.30
2018-07-28T15:48:13.425Z,30.20
2018-07-28T15:50:42.430Z,30.10
2018-07-28T15:53:11.430Z,30.00
2018-07-28T15:55:40.455Z,30.00
2018-07-28T16:00:38.150Z,29.70
2018-07-28T16:03:07.142Z,29.70
2018-07-28T16:05:36.177Z,29.50
2018-07-28T16:08:05.167Z,29.40
2018-07-28T16:10:34.176Z,29.30
2018-07-28T16:13:03.514Z,29.20
2018-07-28T16:15:32.588Z,29.10
2018-07-28T16:18:01.617Z,29.00
2018-07-28T16:20:30.612Z,28.90
2018-07-28T16:22:59.614Z,28.80
2018-07-28T16:25:28.592Z,28.70
2018-07-28T16:27:57.630Z,28.70
2018-07-28T16:30:26.624Z,28.60
2018-07-28T16:32:55.645Z,28.60
2018-07-28T16:35:24.631Z,28.60
2018-07-28T16:37:53.739Z,28.60
2018-07-28T16:40:22.787Z,28.50
2018-07-28T16:42:51.950Z,28.50
2018-07-28T16:45:21.560Z,28.40
2018-07-28T16:47:50.575Z,28.40
2018-07-28T16:50:19.565Z,28.40
2018-07-28T16:52:48.600Z,28.40
2018-07-28T16:55:18.286Z,28.30
2018-07-28T16:57:47.317Z,28.20
2018-07-28T17:00:16.312Z,28.20
2018-07-28T17:02:45.360Z,28.10
2018-07-28T17:05:14.351Z,28.00
2018-07-28T17:07:43.379Z,27.90
2018-07-28T17:12:41.059Z,27.50
2018-07-28T17:15:12.055Z,27.30
2018-07-28T17:17:41.288Z,27.20
2018-07-28T17:20:11.172Z,27.10
2018-07-28T17:22:40.453Z,27.00
2018-07-28T17:25:39.653Z,26.90
2018-07-28T17:28:19.945Z,26.80
2018-07-28T17:30:52.912Z,26.80
2018-07-28T17:33:26.822Z,26.90
2018-07-28T17:35:56.823Z,26.80
2018-07-28T17:38:26.696Z,26.70
2018-07-28T17:40:57.556Z,26.50
2018-07-28T17:43:30.767Z,26.40
2018-07-28T17:46:04.303Z,26.40
2018-07-28T17:48:40.371Z,26.30
2018-07-28T17:51:14.749Z,26.20
2018-07-28T17:53:44.693Z,26.20
2018-07-28T17:58:45.409Z,26.00
2018-07-28T18:01:17.402Z,26.00
2018-07-28T18:03:50.054Z,25.90
2018-07-28T18:06:21.705Z,25.90
2018-07-28T18:08:53.192Z,25.80
2018-07-28T18:11:26.374Z,25.70
2018-07-28T18:13:59.193Z,25.70
2018-07-28T18:16:31.545Z,25.60
2018-07-28T18:19:02.781Z,25.60
2018-07-28T18:21:32.916Z,25.60
2018-07-28T18:24:04.512Z,25.50
2018-07-28T18:26:34.003Z,25.50
2018-07-28T18:29:03.619Z,25.40
2018-07-28T18:31:33.013Z,25.40
2018-07-28T18:34:02.463Z,25.30
2018-07-28T18:36:32.895Z,25.30
2018-07-28T18:39:02.022Z,25.20
2018-07-28T18:41:31.330Z,25.20
2018-07-28T18:44:00.996Z,25.20
2018-07-28T18:46:30.379Z,25.10
2018-07-28T18:48:59.853Z,25.10
2018-07-28T18:51:29.351Z,25.10
2018-07-28T18:53:58.476Z,25.00
2018-07-28T18:56:27.651Z,25.00
2018-07-28T18:58:57.290Z,25.00
2018-07-28T19:01:25.984Z,24.90
2018-07-28T19:03:54.678Z,24.90
2018-07-28T19:06:25.437Z,24.80
2018-07-28T19:10:00.833Z,24.80
2018-07-28T19:12:35.119Z,24.80
2018-07-28T19:15:04.215Z,24.70
2018-07-28T19:17:38.256Z,24.70
2018-07-28T19:20:06.960Z,24.60
2018-07-28T19:22:40.885Z,24.60
2018-07-28T19:25:10.411Z,24.60
2018-07-28T19:27:47.311Z,24.50
2018-07-28T19:33:20.989Z,24.40
2018-07-28T19:35:59.882Z,24.40
2018-07-28T19:38:31.667Z,24.40
2018-07-28T19:46:54.174Z,24.30
2018-07-28T19:49:22.679Z,24.30
2018-07-28T19:51:51.218Z,24.20
2018-07-28T19:54:20.038Z,24.10
2018-07-28T19:56:48.735Z,24.10
2018-07-28T19:59:17.509Z,24.00
2018-07-28T20:01:46.199Z,24.00
2018-07-28T20:04:14.927Z,23.90
2018-07-28T20:06:43.812Z,24.00
2018-07-28T20:09:13.704Z,23.90
2018-07-28T20:11:42.407Z,23.90
2018-07-28T20:14:11.853Z,23.80
2018-07-28T20:16:40.647Z,23.80
2018-07-28T20:21:38.311Z,23.80
2018-07-28T20:24:07.132Z,23.80
2018-07-28T20:26:35.705Z,23.80
2018-07-28T20:29:04.351Z,23.80
2018-07-28T20:31:35.466Z,23.80
2018-07-28T20:34:04.045Z,23.70
2018-07-28T20:36:33.071Z,23.70
2018-07-28T20:39:02.159Z,23.80
2018-07-28T20:41:30.796Z,23.70
2018-07-28T20:43:59.394Z,23.60
2018-07-28T20:46:28.094Z,23.60
2018-07-28T20:48:56.679Z,23.60
2018-07-28T20:51:25.621Z,23.60
2018-07-28T20:53:54.203Z,23.50
2018-07-28T20:56:22.968Z,23.60
2018-07-28T20:58:52.107Z,23.50
2018-07-28T21:01:20.888Z,23.50
2018-07-28T21:03:49.491Z,23.50
2018-07-28T21:06:17.963Z,23.50
2018-07-28T21:08:46.390Z,23.40
2018-07-28T21:11:14.869Z,23.40
2018-07-28T21:13:43.327Z,23.30
2018-07-28T21:16:11.777Z,23.30
2018-07-28T21:18:40.328Z,23.30
2018-07-28T21:21:08.828Z,23.30
2018-07-28T21:23:37.268Z,23.30
2018-07-28T21:26:05.995Z,23.30
2018-07-28T21:28:34.480Z,23.20
2018-07-28T21:31:02.947Z,23.20
2018-07-28T21:33:31.755Z,23.20
2018-07-28T21:36:00.572Z,23.10
2018-07-28T21:38:29.041Z,23.10
2018-07-28T21:40:57.516Z,23.10
2018-07-28T21:43:26.021Z,23.10
2018-07-28T21:45:54.519Z,23.10
2018-07-28T21:48:22.980Z,23.10
2018-07-28T21:50:51.410Z,23.00
2018-07-28T21:53:19.900Z,23.00
2018-07-28T21:55:48.360Z,23.10
2018-07-28T21:58:16.842Z,23.00
2018-07-28T22:00:55.513Z,23.00
2018-07-28T22:03:24.143Z,23.00
2018-07-28T22:05:52.601Z,23.00
2018-07-28T22:10:49.244Z,23.00
2018-07-28T22:13:17.731Z,22.90
2018-07-28T22:15:46.207Z,22.90
2018-07-28T22:18:15.059Z,23.00
2018-07-28T22:20:43.612Z,23.00
2018-07-28T22:23:12.107Z,23.00
2018-07-28T22:25:40.893Z,22.90
2018-07-28T22:28:09.363Z,22.90
2018-07-28T22:30:38.039Z,22.90
2018-07-28T22:33:06.887Z,22.90
2018-07-28T22:35:35.750Z,22.90
2018-07-28T22:38:04.568Z,22.90
2018-07-28T22:40:33.048Z,22.90
2018-07-28T22:43:01.577Z,22.80
2018-07-28T22:45:30.032Z,22.90
2018-07-28T22:47:58.594Z,22.80
2018-07-28T22:50:27.025Z,22.80
2018-07-28T22:52:55.521Z,22.80
2018-07-28T22:55:24.023Z,22.80
2018-07-28T22:57:52.524Z,22.80
2018-07-28T23:00:21.012Z,22.80
2018-07-28T23:02:49.521Z,22.80
2018-07-28T23:05:18.281Z,22.80
2018-07-28T23:07:46.743Z,22.80
2018-07-28T23:10:15.246Z,22.70
2018-07-28T23:12:43.704Z,22.70
2018-07-28T23:15:12.548Z,22.70
2018-07-28T23:17:41.587Z,22.70
2018-07-28T23:20:10.064Z,22.70
2018-07-28T23:22:38.850Z,22.70
2018-07-28T23:25:07.909Z,22.70
2018-07-28T23:27:36.393Z,22.60
2018-07-28T23:30:07.459Z,22.60
2018-07-28T23:32:35.938Z,22.60
2018-07-28T23:35:04.471Z,22.50
2018-07-28T23:37:32.965Z,22.60
2018-07-28T23:40:01.807Z,22.50
2018-07-28T23:42:30.334Z,22.50
2018-07-28T23:44:58.796Z,22.40
2018-07-28T23:47:27.328Z,22.40
2018-07-28T23:49:55.820Z,22.40
2018-07-28T23:52:24.343Z,22.40
2018-07-28T23:54:52.817Z,22.40
2018-07-28T23:57:21.306Z,22.30
2018-07-28T23:59:50.071Z,22.30
